createdAt,value
2022-10-24T00:02:11.359Z,1001.00
2022-10-24T00:04:44.350Z,1001.00
2022-10-24T00:07:19.347Z,1001.00
2022-10-24T00:09:52.331Z,1001.01
2022-10-24T00:12:25.397Z,1001.02
2022-10-24T00:14:58.383Z,1001.00
2022-10-24T00:17:31.396Z,1001.00
2022-10-24T00:20:04.346Z,1001.00
2022-10-24T00:22:37.324Z,1001.00
2022-10-24T00:25:10.051Z,1001.00
2022-10-24T00:27:43.338Z,1001.01
2022-10-24T00:30:16.351Z,1001.01
2022-10-24T00:32:49.427Z,1001.00
2022-10-24T00:35:22.405Z,1001.01
2022-10-24T00:37:55.217Z,1001.01
2022-10-24T00:40:28.393Z,1001.01
2022-10-24T00:43:01.426Z,1001.00
2022-10-24T00:45:34.399Z,1000.99
2022-10-24T00:48:07.428Z,1000.97
2022-10-24T00:50:40.242Z,1000.95
2022-10-24T00:53:13.431Z,1000.95
2022-10-24T00:55:46.499Z,1000.93
2022-10-24T00:58:19.466Z,1000.92
2022-10-24T01:00:52.510Z,1000.90
2022-10-24T01:03:25.475Z,1000.90
2022-10-24T01:05:58.453Z,1000.91
2022-10-24T01:08:31.489Z,1000.90
2022-10-24T01:11:04.509Z,1000.90
2022-10-24T01:13:37.500Z,1000.91
2022-10-24T01:16:10.399Z,1000.90
2022-10-24T01:18:43.544Z,1000.90
2022-10-24T01:21:16.492Z,1000.88
2022-10-24T01:23:49.494Z,1000.85
2022-10-24T01:26:22.515Z,1000.84
2022-10-24T01:29:01.446Z,1000.83
2022-10-24T01:31:34.572Z,1000.80
2022-10-24T01:34:07.450Z,1000.79
2022-10-24T01:36:40.580Z,1000.78
2022-10-24T01:39:16.377Z,1000.74
2022-10-24T01:41:49.281Z,1000.71
2022-10-24T01:44:22.485Z,1000.68
2022-10-24T01:46:55.527Z,1000.66
2022-10-24T01:49:31.467Z,1000.62
2022-10-24T01:52:04.616Z,1000.60
2022-10-24T01:54:37.492Z,1000.57
2022-10-24T01:57:10.503Z,1000.57
2022-10-24T01:59:43.448Z,1000.56
2022-10-24T02:02:16.541Z,1000.53
2022-10-24T02:04:49.538Z,1000.52
2022-10-24T02:07:22.609Z,1000.52
2022-10-24T02:09:55.452Z,1000.51
2022-10-24T02:12:28.512Z,1000.51
2022-10-24T02:15:01.490Z,1000.52
2022-10-24T02:17:34.496Z,1000.53
2022-10-24T02:20:07.588Z,1000.53
2022-10-24T02:22:40.610Z,1000.54
2022-10-24T02:25:13.524Z,1000.55
2022-10-24T02:27:46.910Z,1000.55
2022-10-24T02:30:19.573Z,1000.56
2022-10-24T02:32:52.619Z,1000.55
2022-10-24T02:35:25.573Z,1000.56
2022-10-24T02:37:58.625Z,1000.58
2022-10-24T02:40:31.608Z,1000.57
2022-10-24T02:43:04.619Z,1000.57
2022-10-24T02:45:37.551Z,1000.58
2022-10-24T02:48:10.549Z,1000.58
2022-10-24T02:50:43.437Z,1000.58
2022-10-24T02:53:16.560Z,1000.57
2022-10-24T02:55:49.668Z,1000.56
2022-10-24T02:58:22.576Z,1000.58
2022-10-24T03:00:55.655Z,1000.57
2022-10-24T03:03:28.589Z,1000.54
2022-10-24T03:06:01.631Z,1000.51
2022-10-24T03:08:34.649Z,1000.48
2022-10-24T03:11:07.603Z,1000.45
2022-10-24T03:13:40.639Z,1000.41
2022-10-24T03:16:14.313Z,1000.41
2022-10-24T03:18:46.618Z,1000.42
2022-10-24T03:21:19.671Z,1000.44
2022-10-24T03:23:52.639Z,1000.47
2022-10-24T03:26:25.662Z,1000.50
2022-10-24T03:28:58.678Z,1000.53
2022-10-24T03:31:31.717Z,1000.57
2022-10-24T03:34:04.675Z,1000.60
2022-10-24T03:36:37.690Z,1000.63
2022-10-24T03:39:24.678Z,1000.65
2022-10-24T03:41:57.690Z,1000.68
2022-10-24T03:44:30.715Z,1000.69
2022-10-24T03:47:03.702Z,1000.71
2022-10-24T03:49:36.710Z,1000.71
2022-10-24T03:52:09.641Z,1000.72
2022-10-24T03:54:42.705Z,1000.72
2022-10-24T03:57:15.712Z,1000.72
2022-10-24T03:59:48.640Z,1000.69
2022-10-24T04:02:21.766Z,1000.67
2022-10-24T04:04:54.654Z,1000.67
2022-10-24T04:07:31.175Z,1000.67
2022-10-24T04:10:04.726Z,1000.69
2022-10-24T04:12:37.732Z,1000.69
2022-10-24T04:15:10.652Z,1000.68
2022-10-24T04:17:44.153Z,1000.67
2022-10-24T04:20:16.659Z,1000.67
2022-10-24T04:22:49.705Z,1000.66
2022-10-24T04:25:22.806Z,1000.64
2022-10-24T04:27:55.723Z,1000.64
2022-10-24T04:30:28.688Z,1000.65
2022-10-24T04:33:01.756Z,1000.66
2022-10-24T04:35:34.773Z,1000.68
2022-10-24T04:38:07.829Z,1000.69
2022-10-24T04:40:40.527Z,1000.71
2022-10-24T04:43:13.727Z,1000.71
2022-10-24T04:45:46.721Z,1000.71
2022-10-24T04:48:19.828Z,1000.70
2022-10-24T04:50:52.810Z,1000.72
2022-10-24T04:53:25.846Z,1000.71
2022-10-24T04:55:58.820Z,1000.70
2022-10-24T04:58:31.853Z,1000.69
2022-10-24T05:01:04.847Z,1000.69
2022-10-24T05:03:37.812Z,1000.69
2022-10-24T05:06:10.728Z,1000.67
2022-10-24T05:08:43.865Z,1000.65
2022-10-24T05:11:16.770Z,1000.64
2022-10-24T05:13:49.826Z,1000.64
2022-10-24T05:16:22.813Z,1000.64
2022-10-24T05:18:55.826Z,1000.67
2022-10-24T05:21:28.785Z,1000.69
2022-10-24T05:24:01.857Z,1000.71
2022-10-24T05:26:34.754Z,1000.73
2022-10-24T05:31:40.788Z,1000.76
2022-10-24T05:34:13.778Z,1000.78
2022-10-24T05:36:46.821Z,1000.83
2022-10-24T05:39:19.855Z,1000.87
2022-10-24T05:41:55.285Z,1000.90
2022-10-24T05:44:25.951Z,1000.93
2022-10-24T05:46:58.880Z,1000.97
2022-10-24T05:49:31.851Z,1000.98
2022-10-24T05:52:04.919Z,1001.00
2022-10-24T05:54:48.790Z,1001.02
2022-10-24T05:57:10.965Z,1001.05
2022-10-24T05:59:43.873Z,1001.07
2022-10-24T06:02:16.978Z,1001.12
2022-10-24T06:04:49.929Z,1001.15
2022-10-24T06:07:22.913Z,1001.17
2022-10-24T06:09:55.841Z,1001.18
2022-10-24T06:12:28.951Z,1001.21
2022-10-24T06:15:02.007Z,1001.23
2022-10-24T06:17:35.916Z,1001.25
2022-10-24T06:20:08.812Z,1001.26
2022-10-24T06:22:41.847Z,1001.30
2022-10-24T06:25:14.937Z,1001.30
2022-10-24T06:27:47.870Z,1001.32
2022-10-24T06:30:20.984Z,1001.35
2022-10-24T06:32:53.847Z,1001.38
2022-10-24T06:35:26.612Z,1001.39
2022-10-24T06:37:59.718Z,1001.42
2022-10-24T06:40:32.710Z,1001.44
2022-10-24T06:43:05.787Z,1001.47
2022-10-24T06:45:38.845Z,1001.49
2022-10-24T06:48:11.698Z,1001.52
2022-10-24T06:50:44.942Z,1001.52
2022-10-24T06:53:17.969Z,1001.52
2022-10-24T06:55:50.955Z,1001.52
2022-10-24T06:58:23.942Z,1001.53
2022-10-24T07:00:57.056Z,1001.55
2022-10-24T07:03:43.877Z,1001.58
2022-10-24T07:06:16.898Z,1001.61
2022-10-24T07:08:49.717Z,1001.63
2022-10-24T07:11:22.940Z,1001.64
2022-10-24T07:13:59.614Z,1001.66
2022-10-24T07:16:29.012Z,1001.68
2022-10-24T07:19:01.936Z,1001.68
2022-10-24T07:21:35.020Z,1001.69
2022-10-24T07:24:07.814Z,1001.70
2022-10-24T07:26:40.747Z,1001.70
2022-10-24T07:29:13.694Z,1001.72
2022-10-24T07:31:46.754Z,1001.74
2022-10-24T07:34:21.055Z,1001.79
2022-10-24T07:36:53.793Z,1001.82
2022-10-24T07:39:26.827Z,1001.84
2022-10-24T07:41:59.739Z,1001.86
2022-10-24T07:44:32.872Z,1001.87
2022-10-24T07:47:06.045Z,1001.87
2022-10-24T07:49:38.757Z,1001.86
2022-10-24T07:52:12.027Z,1001.87
2022-10-24T07:54:45.104Z,1001.86
2022-10-24T07:57:17.966Z,1001.86
2022-10-24T07:59:51.072Z,1001.85
2022-10-24T08:02:24.045Z,1001.81
2022-10-24T08:04:56.874Z,1001.78
2022-10-24T08:07:30.057Z,1001.75
2022-10-24T08:10:03.064Z,1001.74
2022-10-24T08:12:36.094Z,1001.72
2022-10-24T08:15:09.201Z,1001.72
2022-10-24T08:17:43.008Z,1001.73
2022-10-24T08:20:16.013Z,1001.74
2022-10-24T08:22:48.767Z,1001.75
2022-10-24T08:25:24.071Z,1001.75
2022-10-24T08:27:58.132Z,1001.74
2022-10-24T08:30:31.183Z,1001.73
2022-10-24T08:33:04.083Z,1001.72
2022-10-24T08:35:36.931Z,1001.70
2022-10-24T08:38:10.027Z,1001.69
2022-10-24T08:40:42.869Z,1001.70
2022-10-24T08:43:16.069Z,1001.72
2022-10-24T08:45:49.202Z,1001.71
2022-10-24T08:48:22.126Z,1001.71
2022-10-24T08:50:55.065Z,1001.70
2022-10-24T08:53:28.186Z,1001.71
2022-10-24T08:56:00.994Z,1001.71
2022-10-24T08:58:34.130Z,1001.73
2022-10-24T09:01:07.126Z,1001.74
2022-10-24T09:03:56.952Z,1001.75
2022-10-24T09:06:13.098Z,1001.75
2022-10-24T09:08:46.159Z,1001.72
2022-10-24T09:11:19.119Z,1001.70
2022-10-24T09:13:52.182Z,1001.67
2022-10-24T09:16:26.186Z,1001.64
2022-10-24T09:19:01.141Z,1001.63
2022-10-24T09:21:34.181Z,1001.61
2022-10-24T09:24:07.200Z,1001.62
2022-10-24T09:26:54.138Z,1001.62
2022-10-24T09:29:27.197Z,1001.61
2022-10-24T09:32:00.129Z,1001.61
2022-10-24T09:34:33.211Z,1001.62
2022-10-24T09:37:06.225Z,1001.63
2022-10-24T09:39:39.193Z,1001.65
2022-10-24T09:42:12.148Z,1001.66
2022-10-24T09:44:45.212Z,1001.69
2022-10-24T09:49:51.233Z,1001.73
2022-10-24T09:52:24.133Z,1001.74
2022-10-24T09:54:57.218Z,1001.77
2022-10-24T09:57:31.604Z,1001.81
2022-10-24T10:00:03.199Z,1001.85
2022-10-24T10:02:36.266Z,1001.87
2022-10-24T10:05:09.115Z,1001.90
2022-10-24T10:07:42.269Z,1001.93
2022-10-24T10:10:15.276Z,1001.96
2022-10-24T10:12:48.255Z,1001.99
2022-10-24T10:15:21.281Z,1002.03
2022-10-24T10:17:54.276Z,1002.05
2022-10-24T10:20:27.122Z,1002.06
2022-10-24T10:23:00.237Z,1002.08
2022-10-24T10:25:34.231Z,1002.11
2022-10-24T10:28:07.252Z,1002.12
2022-10-24T10:30:40.043Z,1002.14
2022-10-24T10:33:13.307Z,1002.15
2022-10-24T10:35:46.219Z,1002.14
2022-10-24T10:38:19.288Z,1002.15
2022-10-24T10:40:52.318Z,1002.14
2022-10-24T10:43:25.241Z,1002.14
2022-10-24T10:45:58.303Z,1002.13
2022-10-24T10:48:31.249Z,1002.12
2022-10-24T10:51:07.354Z,1002.12
2022-10-24T10:53:51.281Z,1002.11
2022-10-24T10:56:24.308Z,1002.10
2022-10-24T10:59:03.245Z,1002.11
2022-10-24T11:01:36.447Z,1002.11
2022-10-24T11:04:09.230Z,1002.11
2022-10-24T11:06:41.986Z,1002.11
2022-10-24T11:09:15.275Z,1002.12
2022-10-24T11:11:48.279Z,1002.09
2022-10-24T11:14:21.027Z,1002.08
2022-10-24T11:16:54.333Z,1002.08
2022-10-24T11:19:27.060Z,1002.07
2022-10-24T11:22:00.347Z,1002.07
2022-10-24T11:24:32.997Z,1002.09
2022-10-24T11:27:06.380Z,1002.11
2022-10-24T11:29:39.201Z,1002.12
2022-10-24T11:32:12.028Z,1002.11
2022-10-24T11:34:45.221Z,1002.10
2022-10-24T11:37:18.045Z,1002.10
2022-10-24T11:39:51.165Z,1002.08
2022-10-24T11:42:24.219Z,1002.07
2022-10-24T11:44:57.103Z,1002.07
2022-10-24T11:47:30.416Z,1002.04
2022-10-24T11:50:03.341Z,1002.00
2022-10-24T11:52:36.325Z,1001.99
2022-10-24T11:55:09.385Z,1001.97
2022-10-24T11:57:42.242Z,1001.96
2022-10-24T12:00:15.342Z,1001.94
2022-10-24T12:02:48.536Z,1001.95
2022-10-24T12:05:21.246Z,1001.93
2022-10-24T12:07:54.457Z,1001.91
2022-10-24T12:10:27.451Z,1001.89
2022-10-24T12:13:00.410Z,1001.87
2022-10-24T12:15:35.481Z,1001.85
2022-10-24T12:18:20.390Z,1001.84
2022-10-24T12:20:53.463Z,1001.80
2022-10-24T12:23:29.335Z,1001.78
2022-10-24T12:26:02.258Z,1001.78
2022-10-24T12:28:35.465Z,1001.75
2022-10-24T12:31:08.150Z,1001.74
2022-10-24T12:33:41.335Z,1001.71
2022-10-24T12:36:14.122Z,1001.69
2022-10-24T12:38:47.228Z,1001.67
2022-10-24T12:41:20.483Z,1001.64
2022-10-24T12:43:53.108Z,1001.65
2022-10-24T12:46:26.129Z,1001.65
2022-10-24T12:48:59.439Z,1001.67
2022-10-24T12:51:32.169Z,1001.65
2022-10-24T12:54:05.127Z,1001.62
2022-10-24T12:56:39.789Z,1001.61
2022-10-24T12:59:11.372Z,1001.57
2022-10-24T13:01:44.251Z,1001.55
2022-10-24T13:04:17.264Z,1001.53
2022-10-24T13:06:50.506Z,1001.52
2022-10-24T13:09:23.461Z,1001.51
2022-10-24T13:11:56.443Z,1001.52
2022-10-24T13:14:29.172Z,1001.51
2022-10-24T13:17:16.065Z,1001.50
2022-10-24T13:19:49.325Z,1001.48
2022-10-24T13:22:22.582Z,1001.48
2022-10-24T13:24:55.343Z,1001.48
2022-10-24T13:27:28.195Z,1001.47
2022-10-24T13:30:01.481Z,1001.49
2022-10-24T13:32:34.175Z,1001.49
2022-10-24T13:35:07.459Z,1001.50
2022-10-24T13:37:40.434Z,1001.52
2022-10-24T13:40:13.515Z,1001.52
2022-10-24T13:42:46.689Z,1001.55
2022-10-24T13:45:19.201Z,1001.55
2022-10-24T13:47:52.202Z,1001.57
2022-10-24T13:50:25.542Z,1001.58
2022-10-24T13:52:58.553Z,1001.59
2022-10-24T13:55:31.489Z,1001.60
2022-10-24T13:58:04.374Z,1001.61
2022-10-24T14:00:37.360Z,1001.62
2022-10-24T14:03:10.235Z,1001.63
2022-10-24T14:05:43.406Z,1001.63
2022-10-24T14:08:19.188Z,1001.66
2022-10-24T14:10:52.242Z,1001.68
2022-10-24T14:13:25.242Z,1001.71
2022-10-24T14:15:58.417Z,1001.74
2022-10-24T14:18:31.530Z,1001.77
2022-10-24T14:21:04.329Z,1001.81
2022-10-24T14:23:37.564Z,1001.83
2022-10-24T14:26:10.568Z,1001.85
2022-10-24T14:28:59.772Z,1001.88
2022-10-24T14:31:30.605Z,1001.89
2022-10-24T14:34:03.323Z,1001.89
2022-10-24T14:36:36.436Z,1001.89
2022-10-24T14:39:09.511Z,1001.91
2022-10-24T14:41:42.680Z,1001.91
2022-10-24T14:44:16.563Z,1001.92
2022-10-24T14:46:49.668Z,1001.90
2022-10-24T14:49:22.667Z,1001.91
2022-10-24T14:51:55.637Z,1001.90
2022-10-24T14:54:42.401Z,1001.91
2022-10-24T14:57:15.603Z,1001.92
2022-10-24T14:59:48.289Z,1001.94
2022-10-24T15:02:21.481Z,1001.95
2022-10-24T15:04:54.523Z,1001.95
2022-10-24T15:07:27.357Z,1001.95
2022-10-24T15:10:00.544Z,1001.96
2022-10-24T15:12:33.512Z,1001.98
2022-10-24T15:15:06.437Z,1002.00
2022-10-24T15:17:39.566Z,1002.02
2022-10-24T15:20:12.328Z,1002.01
2022-10-24T15:22:45.376Z,1002.02
2022-10-24T15:25:18.724Z,1002.02
2022-10-24T15:27:51.639Z,1002.03
2022-10-24T15:30:24.683Z,1002.04
2022-10-24T15:32:57.682Z,1002.05
2022-10-24T15:35:30.650Z,1002.07
2022-10-24T15:38:03.702Z,1002.09
2022-10-24T15:40:36.514Z,1002.10
2022-10-24T15:43:09.361Z,1002.12
2022-10-24T15:45:42.361Z,1002.12
2022-10-24T15:48:15.467Z,1002.14
2022-10-24T15:50:48.483Z,1002.15
2022-10-24T15:53:21.467Z,1002.16
2022-10-24T15:55:54.440Z,1002.18
2022-10-24T15:58:27.684Z,1002.19
2022-10-24T16:01:00.889Z,1002.21
2022-10-24T16:03:33.738Z,1002.22
2022-10-24T16:06:06.436Z,1002.23
2022-10-24T16:08:39.551Z,1002.24
2022-10-24T16:11:12.484Z,1002.26
2022-10-24T16:13:45.842Z,1002.29
2022-10-24T16:16:18.850Z,1002.31
2022-10-24T16:18:51.810Z,1002.37
2022-10-24T16:21:24.555Z,1002.39
2022-10-24T16:23:57.740Z,1002.43
2022-10-24T16:26:30.845Z,1002.47
2022-10-24T16:29:03.740Z,1002.51
2022-10-24T16:31:36.644Z,1002.54
2022-10-24T16:34:09.463Z,1002.57
2022-10-24T16:36:42.598Z,1002.60
2022-10-24T16:39:15.808Z,1002.63
2022-10-24T16:41:48.508Z,1002.67
2022-10-24T16:44:21.551Z,1002.71
2022-10-24T16:46:54.554Z,1002.75
2022-10-24T16:49:27.593Z,1002.76
2022-10-24T16:52:00.564Z,1002.77
2022-10-24T16:54:47.426Z,1002.80
2022-10-24T16:57:20.541Z,1002.82
2022-10-24T16:59:53.654Z,1002.84
2022-10-24T17:02:26.586Z,1002.86
2022-10-24T17:04:59.767Z,1002.88
2022-10-24T17:07:32.842Z,1002.92
2022-10-24T17:10:05.649Z,1002.94
2022-10-24T17:12:38.824Z,1002.95
2022-10-24T17:15:11.495Z,1002.95
2022-10-24T17:17:45.137Z,1002.97
2022-10-24T17:20:17.765Z,1002.99
2022-10-24T17:22:50.512Z,1002.99
2022-10-24T17:25:23.647Z,1003.02
2022-10-24T17:27:56.788Z,1003.04
2022-10-24T17:30:29.546Z,1003.07
2022-10-24T17:33:02.638Z,1003.09
2022-10-24T17:35:35.810Z,1003.10
2022-10-24T17:38:08.597Z,1003.12
2022-10-24T17:40:41.735Z,1003.14
2022-10-24T17:43:14.847Z,1003.16
2022-10-24T17:45:47.937Z,1003.18
2022-10-24T17:48:20.869Z,1003.21
2022-10-24T17:50:53.596Z,1003.23
2022-10-24T17:53:26.540Z,1003.25
2022-10-24T17:55:59.608Z,1003.25
2022-10-24T17:58:32.934Z,1003.26
2022-10-24T18:01:05.741Z,1003.30
2022-10-24T18:03:38.900Z,1003.32
2022-10-24T18:06:11.865Z,1003.36
2022-10-24T18:08:44.614Z,1003.38
2022-10-24T18:11:17.882Z,1003.42
2022-10-24T18:13:50.935Z,1003.46
2022-10-24T18:16:26.220Z,1003.49
2022-10-24T18:18:56.815Z,1003.53
2022-10-24T18:21:29.782Z,1003.57
2022-10-24T18:24:02.792Z,1003.59
2022-10-24T18:26:35.914Z,1003.60
2022-10-24T18:29:09.088Z,1003.61
2022-10-24T18:31:42.904Z,1003.63
2022-10-24T18:34:15.936Z,1003.65
2022-10-24T18:36:48.647Z,1003.67
2022-10-24T18:39:25.030Z,1003.67
2022-10-24T18:41:54.944Z,1003.68
2022-10-24T18:44:28.096Z,1003.70
2022-10-24T18:47:01.918Z,1003.70
2022-10-24T18:49:34.645Z,1003.71
2022-10-24T18:52:08.021Z,1003.71
2022-10-24T18:54:40.639Z,1003.71
2022-10-24T18:57:13.855Z,1003.70
2022-10-24T18:59:46.946Z,1003.70
2022-10-24T19:02:19.784Z,1003.72
2022-10-24T19:04:52.911Z,1003.72
2022-10-24T19:07:25.933Z,1003.74
2022-10-24T19:09:58.689Z,1003.77
2022-10-24T19:12:32.053Z,1003.81
2022-10-24T19:15:04.992Z,1003.84
2022-10-24T19:17:37.838Z,1003.84
2022-10-24T19:20:11.045Z,1003.84
2022-10-24T19:22:44.080Z,1003.85
2022-10-24T19:25:16.837Z,1003.85
2022-10-24T19:27:50.119Z,1003.88
2022-10-24T19:30:22.790Z,1003.89
2022-10-24T19:32:55.900Z,1003.89
2022-10-24T19:35:28.704Z,1003.91
2022-10-24T19:38:01.836Z,1003.96
2022-10-24T19:40:34.685Z,1003.99
2022-10-24T19:43:08.094Z,1003.98
2022-10-24T19:45:49.902Z,1004.02
2022-10-24T19:48:13.995Z,1004.03
2022-10-24T19:50:46.862Z,1004.04
2022-10-24T19:53:20.123Z,1004.06
2022-10-24T19:55:52.729Z,1004.04
2022-10-24T19:58:25.942Z,1004.02
2022-10-24T20:00:58.960Z,1004.01
2022-10-24T20:03:31.813Z,1004.01
2022-10-24T20:06:04.896Z,1004.03
2022-10-24T20:08:37.883Z,1004.05
2022-10-24T20:11:10.821Z,1004.10
2022-10-24T20:13:44.164Z,1004.15
2022-10-24T20:16:16.781Z,1004.19
2022-10-24T20:18:49.930Z,1004.24
2022-10-24T20:21:23.026Z,1004.27
2022-10-24T20:23:55.905Z,1004.30
2022-10-24T20:26:29.056Z,1004.33
2022-10-24T20:29:02.019Z,1004.35
2022-10-24T20:31:35.096Z,1004.37
2022-10-24T20:34:08.481Z,1004.39
2022-10-24T20:36:40.939Z,1004.41
2022-10-24T20:39:13.822Z,1004.42
2022-10-24T20:41:50.313Z,1004.44
2022-10-24T20:44:20.101Z,1004.48
2022-10-24T20:46:53.090Z,1004.52
2022-10-24T20:49:25.943Z,1004.55
2022-10-24T20:51:59.276Z,1004.60
2022-10-24T20:54:32.199Z,1004.64
2022-10-24T20:57:05.110Z,1004.67
2022-10-24T20:59:38.192Z,1004.71
2022-10-24T21:02:10.980Z,1004.76
2022-10-24T21:04:43.837Z,1004.79
2022-10-24T21:07:17.102Z,1004.83
2022-10-24T21:09:50.137Z,1004.86
2022-10-24T21:12:22.817Z,1004.88
2022-10-24T21:14:56.253Z,1004.90
2022-10-24T21:17:28.861Z,1004.93
2022-10-24T21:20:01.996Z,1004.96
2022-10-24T21:22:35.008Z,1004.99
2022-10-24T21:25:08.054Z,1005.03
2022-10-24T21:27:40.939Z,1005.05
2022-10-24T21:30:14.944Z,1005.07
2022-10-24T21:32:47.289Z,1005.09
2022-10-24T21:35:20.228Z,1005.10
2022-10-24T21:37:53.150Z,1005.11
2022-10-24T21:40:26.265Z,1005.11
2022-10-24T21:42:59.152Z,1005.12
2022-10-24T21:45:32.262Z,1005.13
2022-10-24T21:48:05.220Z,1005.14
2022-10-24T21:50:37.964Z,1005.16
2022-10-24T21:53:11.273Z,1005.18
2022-10-24T21:55:44.218Z,1005.17
2022-10-24T21:58:17.241Z,1005.20
2022-10-24T22:00:50.217Z,1005.23
2022-10-24T22:03:26.286Z,1005.25
2022-10-24T22:05:59.166Z,1005.27
2022-10-24T22:08:32.242Z,1005.29
2022-10-24T22:11:05.373Z,1005.32
2022-10-24T22:13:38.187Z,1005.36
2022-10-24T22:16:11.215Z,1005.39
2022-10-24T22:18:44.273Z,1005.42
2022-10-24T22:21:17.340Z,1005.47
2022-10-24T22:23:50.334Z,1005.50
2022-10-24T22:26:23.257Z,1005.53
2022-10-24T22:28:56.331Z,1005.56
2022-10-24T22:31:29.317Z,1005.59
2022-10-24T22:34:08.233Z,1005.62
2022-10-24T22:36:41.303Z,1005.66
2022-10-24T22:39:14.239Z,1005.68
2022-10-24T22:41:47.334Z,1005.70
2022-10-24T22:44:20.245Z,1005.72
2022-10-24T22:46:53.325Z,1005.72
2022-10-24T22:49:26.292Z,1005.72
2022-10-24T22:51:59.072Z,1005.72
2022-10-24T22:54:32.362Z,1005.74
2022-10-24T22:57:05.325Z,1005.75
2022-10-24T22:59:38.379Z,1005.77
2022-10-24T23:02:11.523Z,1005.79
2022-10-24T23:04:44.293Z,1005.83
2022-10-24T23:07:17.260Z,1005.84
2022-10-24T23:09:50.379Z,1005.86
2022-10-24T23:12:23.359Z,1005.85
2022-10-24T23:14:56.392Z,1005.87
2022-10-24T23:17:29.353Z,1005.88
2022-10-24T23:20:02.437Z,1005.91
2022-10-24T23:22:35.442Z,1005.92
2022-10-24T23:25:08.393Z,1005.95
2022-10-24T23:27:41.370Z,1005.97
2022-10-24T23:30:14.309Z,1005.96
2022-10-24T23:32:47.759Z,1005.98
2022-10-24T23:35:20.390Z,1005.99
2022-10-24T23:37:53.448Z,1006.03
2022-10-24T23:40:26.420Z,1006.03
2022-10-24T23:42:59.337Z,1006.04
2022-10-24T23:45:32.433Z,1006.04
2022-10-24T23:48:05.414Z,1006.04
2022-10-24T23:50:38.467Z,1006.06
2022-10-24T23:53:11.322Z,1006.08
2022-10-24T23:55:44.484Z,1006.11
2022-10-24T23:58:17.367Z,1006.12
